Time;durP1;ratioP1;P1;durP2;ratioP2;P2;SDS_P1;SDS_P2;PMS_P1;PMS_P2;Temp;Humidity;BMP_temperature;BMP_pressure;BME280_temperature;BME280_humidity;BME280_pressure;Samples;Min_cycle;Max_cycle;Signal;HPM_P1;HPM_P2
2023/03/08 00:00:09;;;;;;;7.10;3.80;;;;;;;-0.41;100.00;100007.78;4993879;28;20109;-83
2023/03/08 00:02:37;;;;;;;6.75;3.78;;;;;;;-0.43;100.00;99997.56;4993737;28;20026;-83
2023/03/08 00:05:04;;;;;;;7.05;3.80;;;;;;;-0.40;100.00;99992.53;4992507;28;20038;-83
2023/03/08 00:07:29;;;;;;;8.52;4.10;;;;;;;-0.35;100.00;99995.16;4993862;28;20042;-84
2023/03/08 00:09:55;;;;;;;7.30;3.60;;;;;;;-0.37;100.00;99995.09;4993497;28;20383;-83
2023/03/08 00:12:21;;;;;;;7.05;3.55;;;;;;;-0.37;100.00;99996.81;4993200;28;20030;-83
2023/03/08 00:14:49;;;;;;;6.70;3.60;;;;;;;-0.38;100.00;99995.94;4993671;28;20022;-83
2023/03/08 00:17:15;;;;;;;7.07;3.90;;;;;;;-0.35;100.00;99990.06;4993048;28;20470;-83
2023/03/08 00:19:41;;;;;;;7.20;3.45;;;;;;;-0.36;100.00;99994.28;4993830;28;20019;-83
2023/03/08 00:22:06;;;;;;;7.78;4.10;;;;;;;-0.33;100.00;100001.09;4993301;28;20390;-83
2023/03/08 00:24:31;;;;;;;8.27;4.10;;;;;;;-0.36;100.00;99984.06;4992947;28;20506;-83
2023/03/08 00:26:57;;;;;;;7.30;3.90;;;;;;;-0.37;100.00;99984.06;4993506;28;20034;-83
2023/03/08 00:29:22;;;;;;;5.97;3.53;;;;;;;-0.33;100.00;99993.47;4993774;28;20054;-83
2023/03/08 00:31:48;;;;;;;7.90;4.10;;;;;;;-0.33;100.00;99999.44;4992584;28;20508;-83
2023/03/08 00:34:13;;;;;;;7.53;4.00;;;;;;;-0.40;100.00;99982.34;4993313;28;20391;-83
2023/03/08 00:36:38;;;;;;;8.93;4.20;;;;;;;-0.40;100.00;99977.22;4993528;28;20038;-83
2023/03/08 00:39:04;;;;;;;8.38;4.22;;;;;;;-0.28;100.00;99991.84;4992479;28;20379;-83
2023/03/08 00:41:30;;;;;;;9.05;4.45;;;;;;;-0.28;100.00;99989.31;4993320;28;20063;-83
2023/03/08 00:43:55;;;;;;;8.55;4.22;;;;;;;-0.28;100.00;99988.47;4993398;28;20022;-84
2023/03/08 00:46:20;;;;;;;7.88;4.20;;;;;;;-0.29;100.00;99985.03;4992755;28;20030;-84
2023/03/08 00:48:46;;;;;;;10.13;4.80;;;;;;;-0.28;100.00;99989.31;4992842;28;20482;-83
2023/03/08 00:51:13;;;;;;;10.43;4.90;;;;;;;-0.22;100.00;99991.09;4993433;28;20018;-83
2023/03/08 00:53:39;;;;;;;10.52;4.70;;;;;;;-0.27;100.00;99983.38;4992578;28;20042;-84
2023/03/08 00:56:05;;;;;;;8.85;4.50;;;;;;;-0.23;100.00;99987.69;4992916;28;20030;-83
2023/03/08 00:58:31;;;;;;;10.57;4.95;;;;;;;-0.21;100.00;99985.16;4993054;28;20030;-83
2023/03/08 01:00:57;;;;;;;10.57;5.13;;;;;;;-0.23;100.00;99974.94;4991952;28;20457;-83
2023/03/08 01:03:23;;;;;;;11.73;5.40;;;;;;;-0.20;100.00;99976.66;4993217;28;20394;-83
2023/03/08 01:05:51;;;;;;;13.65;6.20;;;;;;;-0.19;100.00;99978.38;4992665;28;20033;-83
2023/03/08 01:08:17;;;;;;;14.63;6.55;;;;;;;-0.21;100.00;99968.13;4992380;28;20125;-83
2023/03/08 01:10:50;;;;;;;14.83;6.47;;;;;;;-0.20;100.00;99977.50;4993424;28;20033;-84
2023/03/08 01:13:16;;;;;;;14.32;6.45;;;;;;;-0.19;100.00;99973.28;4993591;28;20034;-83
2023/03/08 01:15:44;;;;;;;15.17;6.30;;;;;;;-0.20;100.00;99963.91;4992604;28;20022;-83
2023/03/08 01:18:10;;;;;;;13.75;6.43;;;;;;;-0.18;100.00;99962.25;4993058;28;20438;-83
2023/03/08 01:20:35;;;;;;;15.32;6.72;;;;;;;-0.20;100.00;99956.25;4992462;28;20034;-83
2023/03/08 01:23:00;;;;;;;12.48;5.80;;;;;;;-0.22;100.00;99951.13;4992941;28;20106;-83
2023/03/08 01:25:26;;;;;;;12.32;5.80;;;;;;;-0.19;100.00;99953.72;4993286;28;20391;-83
2023/03/08 01:27:51;;;;;;;12.05;5.60;;;;;;;-0.19;100.00;99943.53;4991797;28;20541;-83
2023/03/08 01:30:20;;;;;;;11.48;5.45;;;;;;;-0.17;100.00;99938.47;4993183;28;20023;-83
2023/03/08 01:32:45;;;;;;;14.75;6.15;;;;;;;-0.16;100.00;99932.50;4992696;28;20089;-83
2023/03/08 01:35:11;;;;;;;15.02;6.50;;;;;;;-0.16;100.00;99929.94;4992080;28;20158;-83
2023/03/08 01:37:36;;;;;;;14.30;6.32;;;;;;;-0.18;100.00;99924.84;4992734;28;20054;-83
2023/03/08 01:40:04;;;;;;;13.52;5.80;;;;;;;-0.19;100.00;99912.91;4992780;28;20117;-83
2023/03/08 01:42:30;;;;;;;14.50;6.00;;;;;;;-0.14;100.00;99912.13;4974787;28;20474;-83
2023/03/08 01:45:01;;;;;;;15.80;6.60;;;;;;;-0.14;100.00;99915.53;4992687;28;20033;-83
2023/03/08 01:47:28;;;;;;;17.70;7.10;;;;;;;-0.13;100.00;99916.41;4992765;28;20446;-83
2023/03/08 01:50:01;;;;;;;17.42;7.57;;;;;;;-0.13;100.00;99909.59;4991721;28;20022;-83
2023/03/08 01:52:33;;;;;;;17.20;7.00;;;;;;;-0.14;100.00;99910.44;4992775;28;20034;-83
2023/03/08 01:55:09;;;;;;;16.27;6.72;;;;;;;-0.12;100.00;99907.91;4995250;28;20121;-83
2023/03/08 01:57:39;;;;;;;20.20;8.98;;;;;;;-0.10;100.00;99906.22;4995456;28;20093;-83
2023/03/08 02:00:21;;;;;;;19.55;8.68;;;;;;;-0.10;100.00;99908.78;4996144;28;20037;-83
2023/03/08 02:02:51;;;;;;;19.85;8.73;;;;;;;-0.08;100.00;99904.56;4995421;28;20478;-82
2023/03/08 02:05:17;;;;;;;18.63;7.88;;;;;;;-0.07;100.00;99903.72;4995962;28;20454;-83
2023/03/08 02:07:42;;;;;;;19.23;8.32;;;;;;;-0.07;100.00;99894.38;4996291;28;20039;-84
2023/03/08 02:10:09;;;;;;;18.75;8.25;;;;;;;-0.04;100.00;99899.50;4995333;28;20085;-83
2023/03/08 02:12:35;;;;;;;21.23;9.00;;;;;;;-0.04;100.00;99889.31;4995940;28;20109;-83
2023/03/08 02:15:03;;;;;;;18.87;7.80;;;;;;;-0.02;100.00;99881.69;4995688;28;20487;-83
2023/03/08 02:17:29;;;;;;;18.50;7.57;;;;;;;-0.02;100.00;99881.69;4994719;28;20327;-83
2023/03/08 02:20:05;;;;;;;19.58;8.27;;;;;;;0.01;100.00;99866.41;4995507;28;20113;-84
2023/03/08 02:22:31;;;;;;;19.88;8.07;;;;;;;-0.01;100.00;99868.09;4996135;28;20030;-83
2023/03/08 02:24:56;;;;;;;20.77;8.85;;;;;;;0.03;100.00;99858.78;4995193;28;20018;-83
2023/03/08 02:27:27;;;;;;;19.80;8.27;;;;;;;0.03;100.00;99851.97;4996006;28;20026;-83
2023/03/08 02:29:52;;;;;;;18.75;7.63;;;;;;;0.04;100.00;99858.78;4995794;28;20084;-83
2023/03/08 02:32:17;;;;;;;18.17;7.53;;;;;;;0.06;100.00;99854.56;4995036;28;20026;-83
2023/03/08 02:34:43;;;;;;;17.42;7.05;;;;;;;0.07;100.00;99856.28;4995564;28;20102;-83
2023/03/08 02:37:08;;;;;;;17.00;6.65;;;;;;;0.03;100.00;99846.03;4995355;28;20042;-84
2023/03/08 02:39:34;;;;;;;16.65;6.65;;;;;;;0.08;100.00;99852.91;4994916;28;20022;-83
2023/03/08 02:41:59;;;;;;;19.60;7.68;;;;;;;0.07;100.00;99851.19;4995231;28;20068;-83
2023/03/08 02:44:25;;;;;;;18.73;7.35;;;;;;;0.10;100.00;99841.03;4995576;28;20030;-83
2023/03/08 02:46:51;;;;;;;17.92;7.13;;;;;;;0.08;100.00;99832.47;4994693;28;20022;-83
2023/03/08 02:49:16;;;;;;;21.45;9.50;;;;;;;0.14;100.00;99839.34;4995430;28;20105;-83
2023/03/08 02:51:42;;;;;;;20.98;9.05;;;;;;;0.12;100.00;99836.75;4995104;28;20113;-83
2023/03/08 02:54:07;;;;;;;20.70;8.55;;;;;;;0.09;100.00;99834.19;4994097;28;20058;-83
2023/03/08 02:56:32;;;;;;;21.50;9.00;;;;;;;0.13;100.00;99842.75;5002850;28;20045;-84
2023/03/08 02:58:58;;;;;;;20.60;8.77;;;;;;;0.13;100.00;99835.09;5013729;28;20036;-83
2023/03/08 03:01:24;;;;;;;19.95;8.18;;;;;;;0.09;100.00;99823.13;5014592;28;20022;-84
2023/03/08 03:03:53;;;;;;;19.98;8.15;;;;;;;0.14;100.00;99835.09;5014050;28;20034;-83
2023/03/08 03:06:19;;;;;;;18.23;7.53;;;;;;;0.14;100.00;99834.25;5013774;28;20404;-83
2023/03/08 03:08:45;;;;;;;19.83;7.97;;;;;;;0.14;100.00;99841.91;5014383;28;20355;-84
2023/03/08 03:11:18;;;;;;;18.27;7.28;;;;;;;0.17;100.00;99823.22;5014371;28;20025;-83
2023/03/08 03:13:44;;;;;;;19.00;7.35;;;;;;;0.13;100.00;99802.75;5013477;28;20037;-83
2023/03/08 03:16:13;;;;;;;17.17;7.15;;;;;;;0.10;100.00;99792.53;5014420;28;20025;-84
2023/03/08 03:18:39;;;;;;;16.95;6.47;;;;;;;0.17;100.00;99808.75;5014440;28;20022;-84
2023/03/08 03:21:07;;;;;;;17.52;6.93;;;;;;;0.19;100.00;99801.13;5013404;28;20030;-83
2023/03/08 03:23:32;;;;;;;16.35;6.25;;;;;;;0.18;100.00;99800.25;5014357;28;20042;-83
2023/03/08 03:26:07;;;;;;;16.55;6.53;;;;;;;0.16;100.00;99794.31;5014109;28;20498;-83
2023/03/08 03:28:33;;;;;;;16.05;6.05;;;;;;;0.18;100.00;99802.81;5013680;28;20418;-84
2023/03/08 03:30:58;;;;;;;16.67;6.20;;;;;;;0.18;100.00;99792.59;5013960;28;20018;-83
2023/03/08 03:33:24;;;;;;;15.60;6.13;;;;;;;0.17;100.00;99775.56;5014058;28;20026;-84
2023/03/08 03:35:49;;;;;;;16.48;5.80;;;;;;;0.15;100.00;99765.34;5012902;28;20498;-83
2023/03/08 03:38:14;;;;;;;15.35;5.45;;;;;;;0.18;100.00;99769.63;5014065;28;20120;-83
2023/03/08 03:40:39;;;;;;;13.60;5.47;;;;;;;0.16;100.00;99758.56;5014310;28;20076;-83
2023/03/08 03:43:05;;;;;;;14.93;6.00;;;;;;;0.11;100.00;99750.00;5013142;28;20061;-83
2023/03/08 03:45:30;;;;;;;15.68;5.95;;;;;;;0.09;100.00;99746.56;5014003;28;20116;-84
2023/03/08 03:47:55;;;;;;;15.07;5.72;;;;;;;0.14;100.00;99755.16;4998563;28;20034;-83
2023/03/08 03:50:21;;;;;;;16.13;5.95;;;;;;;0.11;100.00;99750.84;4993383;28;20033;-83
2023/03/08 03:52:46;;;;;;;15.30;6.15;;;;;;;0.10;100.00;99745.75;4993454;28;20494;-83
2023/03/08 03:55:11;;;;;;;16.63;6.25;;;;;;;0.13;100.00;99755.97;4994255;28;20034;-83
2023/03/08 03:57:37;;;;;;;16.08;6.00;;;;;;;0.16;100.00;99758.56;4993708;28;20076;-83
2023/03/08 04:00:04;;;;;;;16.27;6.05;;;;;;;0.15;100.00;99747.50;4993786;28;20105;-83
2023/03/08 04:02:29;;;;;;;16.45;6.10;;;;;;;0.13;100.00;99738.13;4993382;28;20038;-83
2023/03/08 04:04:55;;;;;;;16.95;6.55;;;;;;;0.19;100.00;99747.53;4993765;28;20026;-83
2023/03/08 04:07:20;;;;;;;17.67;6.70;;;;;;;0.19;100.00;99742.44;4993936;28;20519;-83
2023/03/08 04:09:46;;;;;;;19.27;8.00;;;;;;;0.09;100.00;99718.50;4993016;28;20023;-83
2023/03/08 04:12:12;;;;;;;20.08;7.88;;;;;;;0.17;100.00;99732.19;4993733;28;20109;-84
2023/03/08 04:14:39;;;;;;;20.08;8.65;;;;;;;0.17;100.00;99728.78;4993943;28;20034;-83
2023/03/08 04:17:04;;;;;;;;;;;;;;;0.19;100.00;99727.97;4992625;28;20356;-83
2023/03/08 04:19:35;;;;;;;21.50;9.33;;;;;;;0.10;100.00;99707.47;4993734;28;20388;-84
2023/03/08 04:22:01;;;;;;;20.20;8.57;;;;;;;0.12;100.00;99716.00;4993272;28;20041;-83
2023/03/08 04:24:26;;;;;;;21.65;9.48;;;;;;;0.12;100.00;99709.19;4993318;28;20022;-84
2023/03/08 04:26:51;;;;;;;21.83;9.90;;;;;;;0.13;100.00;99705.78;4993477;28;20022;-83
2023/03/08 04:29:17;;;;;;;22.38;10.43;;;;;;;0.11;100.00;99702.38;4993817;28;20034;-83
2023/03/08 04:31:42;;;;;;;20.92;9.35;;;;;;;0.09;100.00;99698.09;4992882;28;20037;-84
2023/03/08 04:34:07;;;;;;;20.90;9.25;;;;;;;0.10;100.00;99692.16;4993298;28;20554;-83
2023/03/08 04:36:33;;;;;;;19.77;8.98;;;;;;;0.12;100.00;99693.03;4994034;28;20446;-83
2023/03/08 04:38:58;;;;;;;18.83;8.25;;;;;;;0.13;100.00;99690.50;4992329;28;20026;-83
2023/03/08 04:41:24;;;;;;;22.67;11.00;;;;;;;0.11;100.00;99679.41;4993492;28;20023;-84
2023/03/08 04:43:52;;;;;;;23.38;10.80;;;;;;;0.14;100.00;99681.16;4993275;28;20026;-84
2023/03/08 04:46:19;;;;;;;22.83;10.63;;;;;;;0.11;100.00;99687.06;4993615;28;20485;-84
2023/03/08 04:48:45;;;;;;;21.90;10.13;;;;;;;0.09;100.00;99676.00;5012453;28;20529;-83
2023/03/08 04:51:12;;;;;;;19.60;9.30;;;;;;;0.08;100.00;99671.75;5013223;28;20022;-83
2023/03/08 04:53:40;;;;;;;19.20;8.20;;;;;;;0.09;100.00;99664.94;5012491;28;20033;-84
2023/03/08 04:56:06;;;;;;;19.13;8.23;;;;;;;0.11;100.00;99668.38;5012545;28;20533;-84
2023/03/08 04:58:32;;;;;;;22.40;10.60;;;;;;;0.09;100.00;99659.84;5012538;28;20363;-83
2023/03/08 05:00:58;;;;;;;20.83;9.57;;;;;;;0.04;100.00;99648.75;5012636;28;20026;-84
2023/03/08 05:03:24;;;;;;;20.33;9.38;;;;;;;0.05;100.00;99646.19;5012882;28;20028;-84
2023/03/08 05:05:54;;;;;;;20.45;9.25;;;;;;;0.04;100.00;99641.94;5011979;28;20048;-83
2023/03/08 05:08:20;;;;;;;21.85;10.18;;;;;;;0.04;100.00;99625.78;5012001;28;20045;-84
2023/03/08 05:10:56;;;;;;;21.05;9.50;;;;;;;0.12;100.00;99630.09;5012695;28;20026;-83
2023/03/08 05:13:22;;;;;;;24.63;11.88;;;;;;;0.09;100.00;99625.00;5012407;28;20033;-84
2023/03/08 05:15:47;;;;;;;23.23;11.25;;;;;;;0.03;100.00;99614.72;5012931;28;20025;-84
2023/03/08 05:18:12;;;;;;;21.80;10.02;;;;;;;0.05;100.00;99618.13;5012594;28;20125;-84
2023/03/08 05:20:37;;;;;;;22.35;10.73;;;;;;;0.07;100.00;99618.13;5011644;28;20030;-84
2023/03/08 05:23:03;;;;;;;19.75;9.45;;;;;;;-0.01;100.00;99607.91;5012607;28;20033;-83
2023/03/08 05:25:30;;;;;;;21.33;9.80;;;;;;;0.02;100.00;99609.63;5012932;28;20061;-84
2023/03/08 05:27:55;;;;;;;;;;;;;;;0.01;100.00;99602.81;5013212;28;20026;-83
2023/03/08 05:30:21;;;;;;;20.30;9.03;;;;;;;-0.01;100.00;99592.59;5016561;28;19920;-83
2023/03/08 05:32:46;;;;;;;20.23;9.27;;;;;;;0.02;100.00;99591.75;5015926;28;20030;-83
2023/03/08 05:35:11;;;;;;;20.10;8.85;;;;;;;-0.03;100.00;99584.91;5015577;28;20066;-84
2023/03/08 05:37:36;;;;;;;19.17;8.48;;;;;;;-0.03;100.00;99579.81;5016376;28;20026;-84
2023/03/08 05:40:05;;;;;;;17.55;7.60;;;;;;;0.02;100.00;99581.56;5016080;28;20050;-84
2023/03/08 05:42:31;;;;;;;18.58;7.68;;;;;;;0.01;100.00;99570.47;5015376;28;20029;-84
2023/03/08 05:44:56;;;;;;;19.08;8.18;;;;;;;0.03;100.00;99562.84;5015933;28;20030;-84
2023/03/08 05:47:22;;;;;;;17.30;7.07;;;;;;;-0.01;100.00;99554.34;5005769;28;20053;-84
2023/03/08 05:49:47;;;;;;;19.63;8.40;;;;;;;0.00;100.00;99553.50;4995130;28;20057;-83
2023/03/08 05:52:12;;;;;;;18.67;7.90;;;;;;;-0.03;100.00;99551.75;4996680;28;20047;-84
2023/03/08 05:54:38;;;;;;;20.60;8.30;;;;;;;-0.05;100.00;99544.94;4996417;28;20371;-84
2023/03/08 05:57:03;;;;;;;17.33;7.05;;;;;;;-0.07;100.00;99541.53;4995313;28;20022;-84
2023/03/08 05:59:29;;;;;;;18.50;7.68;;;;;;;-0.06;100.00;99543.22;4996415;28;20037;-84
2023/03/08 06:01:54;;;;;;;19.77;8.57;;;;;;;0.04;100.00;99532.25;4995331;28;20038;-83
2023/03/08 06:04:19;;;;;;;18.90;7.70;;;;;;;-0.08;100.00;99516.84;4996247;28;20407;-83
2023/03/08 06:06:45;;;;;;;18.55;7.68;;;;;;;-0.06;100.00;99528.78;4996126;28;20109;-83
2023/03/08 06:09:10;;;;;;;18.45;7.72;;;;;;;-0.08;100.00;99519.41;4995498;28;20027;-84
2023/03/08 06:11:35;;;;;;;17.52;7.18;;;;;;;-0.10;100.00;99526.19;4996154;28;20158;-83
2023/03/08 06:14:00;;;;;;;17.63;7.38;;;;;;;-0.16;100.00;99522.75;4996064;28;20038;-83
2023/03/08 06:16:26;;;;;;;19.17;8.02;;;;;;;-0.16;100.00;99524.44;4996772;28;20470;-83
2023/03/08 06:18:51;;;;;;;18.08;7.40;;;;;;;-0.19;100.00;99524.44;5015457;28;20034;-83
2023/03/08 06:21:18;;;;;;;19.02;7.90;;;;;;;-0.22;100.00;99517.59;5015718;28;20145;-83
2023/03/08 06:23:45;;;;;;;17.80;7.63;;;;;;;-0.22;100.00;99519.31;5015171;28;20025;-83
2023/03/08 06:26:11;;;;;;;19.17;8.32;;;;;;;-0.28;100.00;99520.13;5015212;28;20374;-83
2023/03/08 06:28:39;;;;;;;16.25;6.82;;;;;;;-0.35;100.00;99519.22;5015630;28;20026;-83
2023/03/08 06:31:04;;;;;;;16.45;6.60;;;;;;;-0.31;100.00;99517.53;5014334;28;20549;-83
2023/03/08 06:33:32;;;;;;;14.68;5.95;;;;;;;-0.12;100.00;99516.00;5015204;28;20033;-83
2023/03/08 06:36:04;;;;;;;18.98;7.72;;;;;;;-0.33;100.00;99519.22;5014653;28;20045;-84
2023/03/08 06:38:31;;;;;;;17.92;7.20;;;;;;;-0.35;100.00;99519.22;5014375;28;20037;-83
2023/03/08 06:40:57;;;;;;;19.40;8.23;;;;;;;-0.42;100.00;99512.38;5014384;28;20108;-83
2023/03/08 06:45:58;;;;;;;15.27;6.43;;;;;;;-0.44;100.00;99503.00;5095822;23;20124;-83
2023/03/08 06:48:23;;;;;;;17.80;6.70;;;;;;;-0.45;100.00;99493.66;5014099;28;20034;-83
2023/03/08 06:50:49;;;;;;;16.38;6.47;;;;;;;-0.45;100.00;99501.31;5014626;28;20053;-82
2023/03/08 06:53:17;;;;;;;15.13;6.00;;;;;;;-0.49;100.00;99511.47;5013859;28;20026;-83
2023/03/08 06:55:43;;;;;;;15.55;6.05;;;;;;;-0.37;100.00;99507.31;4998921;28;20034;-82
2023/03/08 06:58:08;;;;;;;14.82;5.97;;;;;;;-0.48;100.00;99513.19;4993856;28;20164;-83
2023/03/08 07:00:34;;;;;;;13.90;5.45;;;;;;;-0.53;100.00;99514.81;4994992;28;20034;-82
2023/03/08 07:02:59;;;;;;;12.68;5.07;;;;;;;-0.60;100.00;99500.34;5014461;28;20433;-82
2023/03/08 07:05:25;;;;;;;13.18;5.40;;;;;;;-0.57;100.00;99512.25;5013827;28;20048;-82
2023/03/08 07:07:50;;;;;;;14.57;5.93;;;;;;;-0.66;100.00;99513.88;5014605;28;20410;-82
2023/03/08 07:10:19;;;;;;;12.65;5.50;;;;;;;-0.70;100.00;99508.75;5013582;28;20030;-83
2023/03/08 07:12:47;;;;;;;14.90;5.70;;;;;;;-0.72;100.00;99505.31;5013689;28;20034;-82
2023/03/08 07:15:14;;;;;;;11.68;4.88;;;;;;;-0.62;100.00;99507.09;5014768;28;20026;-82
2023/03/08 07:17:41;;;;;;;11.45;5.03;;;;;;;-0.65;100.00;99496.88;5014718;28;20025;-83
2023/03/08 07:20:07;;;;;;;11.18;4.60;;;;;;;-0.69;100.00;99490.06;5013563;28;20022;-82
2023/03/08 07:22:33;;;;;;;9.63;4.15;;;;;;;-0.68;100.00;99484.13;5013974;28;20061;-83
2023/03/08 07:24:58;;;;;;;10.38;4.28;;;;;;;-0.68;100.00;99486.69;5014014;28;20026;-82
2023/03/08 07:27:23;;;;;;;10.02;4.10;;;;;;;-0.63;100.00;99480.78;5013375;28;20030;-83
2023/03/08 07:29:49;;;;;;;8.20;3.95;;;;;;;-0.68;100.00;99473.94;5014071;28;20030;-83
2023/03/08 07:32:14;;;;;;;10.02;4.10;;;;;;;-0.67;100.00;99475.63;5014034;28;20514;-84
2023/03/08 07:34:40;;;;;;;10.55;4.50;;;;;;;-0.71;100.00;99474.75;5013252;28;20044;-84
2023/03/08 07:37:13;;;;;;;10.05;4.15;;;;;;;-0.72;100.00;99465.38;5013757;28;20103;-83
2023/03/08 07:39:38;;;;;;;11.02;4.47;;;;;;;-0.68;100.00;99471.41;5014087;28;20026;-84
2023/03/08 07:42:04;;;;;;;15.15;5.35;;;;;;;-0.71;100.00;99463.72;5013057;28;20034;-84
2023/03/08 07:44:29;;;;;;;12.68;5.10;;;;;;;-0.73;100.00;99466.22;5011887;28;20042;-84
2023/03/08 07:46:54;;;;;;;10.77;4.70;;;;;;;-0.73;100.00;99460.28;5013831;28;20084;-83
2023/03/08 07:49:20;;;;;;;11.38;4.93;;;;;;;-0.74;100.00;99466.22;5013390;28;20021;-84
2023/03/08 07:51:45;;;;;;;11.07;5.05;;;;;;;-0.74;100.00;99468.78;5012570;28;20032;-84
2023/03/08 07:54:11;;;;;;;12.00;4.95;;;;;;;-0.76;100.00;99457.72;5013548;28;20053;-84
2023/03/08 07:56:37;;;;;;;13.75;5.32;;;;;;;-0.79;100.00;99448.34;5012671;28;20034;-83
2023/03/08 07:59:03;;;;;;;10.25;4.55;;;;;;;-0.80;100.00;99446.66;5013919;28;20414;-84
2023/03/08 08:01:28;;;;;;;13.25;5.53;;;;;;;-0.77;100.00;99439.03;5013273;28;20022;-84
2023/03/08 08:03:53;;;;;;;15.57;5.95;;;;;;;-0.76;100.00;99450.06;5013728;28;20025;-86
2023/03/08 08:06:19;;;;;;;13.10;5.65;;;;;;;-0.79;100.00;99433.91;5013894;28;20022;-82
2023/03/08 08:08:44;;;;;;;16.15;6.90;;;;;;;-0.85;100.00;99438.97;5012297;28;20033;-84
2023/03/08 08:11:14;;;;;;;16.42;6.85;;;;;;;-0.82;100.00;99441.56;5013470;28;20133;-84
2023/03/08 08:13:40;;;;;;;17.45;7.18;;;;;;;-0.86;100.00;99438.97;5013720;28;20033;-84
2023/03/08 08:16:06;;;;;;;18.20;7.90;;;;;;;-0.84;100.00;99439.81;5013315;28;20077;-83
2023/03/08 08:18:33;;;;;;;19.10;8.27;;;;;;;-0.86;100.00;99439.81;5013426;28;20120;-84
2023/03/08 08:21:07;;;;;;;18.13;7.43;;;;;;;-0.90;100.00;99425.31;5012984;28;20022;-82
2023/03/08 08:23:34;;;;;;;19.30;8.05;;;;;;;-0.86;100.00;99427.06;5012583;28;20561;-83
2023/03/08 08:26:03;;;;;;;19.42;8.90;;;;;;;-0.82;100.00;99423.72;5013268;28;20024;-83
2023/03/08 08:28:28;;;;;;;20.55;9.25;;;;;;;-0.95;100.00;99416.81;5013453;28;20057;-84
2023/03/08 08:31:05;;;;;;;20.92;9.40;;;;;;;-0.91;100.00;99413.47;5012360;28;20057;-83
2023/03/08 08:33:31;;;;;;;;;;;;;;;-0.96;100.00;99420.19;5013504;28;20030;-83
2023/03/08 08:35:57;;;;;;;18.10;7.80;;;;;;;-1.02;100.00;99409.97;5012735;28;20316;-83
2023/03/08 08:38:23;;;;;;;18.93;8.13;;;;;;;-1.10;100.00;99402.25;5012675;28;20034;-83
2023/03/08 08:40:48;;;;;;;18.60;7.82;;;;;;;-1.06;100.00;99388.69;5013043;28;20026;-83
2023/03/08 08:43:14;;;;;;;18.88;8.23;;;;;;;-1.11;100.00;99375.09;5013308;28;20030;-84
2023/03/08 08:45:44;;;;;;;17.85;7.88;;;;;;;-1.07;100.00;99381.06;5026549;28;20049;-83
2023/03/08 08:48:10;;;;;;;18.73;7.95;;;;;;;-1.17;100.00;99375.00;5032594;28;20026;-83
2023/03/08 08:50:37;;;;;;;18.92;7.75;;;;;;;-1.10;100.00;99394.63;5032882;28;20048;-85
2023/03/08 08:53:02;;;;;;;17.58;7.68;;;;;;;-1.07;100.00;99391.22;5031872;28;20540;-83
2023/03/08 08:55:27;;;;;;;16.33;7.40;;;;;;;-1.07;100.00;99404.84;5032478;28;20025;-84
2023/03/08 08:57:53;;;;;;;18.75;7.95;;;;;;;-1.01;100.00;99402.31;5031794;28;20097;-83
2023/03/08 09:00:18;;;;;;;18.95;8.55;;;;;;;-1.04;100.00;99406.56;5032483;28;20091;-85
2023/03/08 09:02:44;;;;;;;18.10;7.78;;;;;;;-0.90;100.00;99415.13;5033600;28;20029;-84
2023/03/08 09:05:09;;;;;;;17.48;7.25;;;;;;;-0.85;100.00;99418.59;5035790;28;20026;-84
2023/03/08 09:07:34;;;;;;;16.88;7.10;;;;;;;-0.88;100.00;99416.00;5037123;28;20022;-84
2023/03/08 09:10:00;;;;;;;16.40;6.90;;;;;;;-0.84;100.00;99420.31;5036605;28;20385;-87
2023/03/08 09:12:27;;;;;;;17.05;7.18;;;;;;;-0.83;100.00;99419.47;5036166;28;20029;-86
2023/03/08 09:14:52;;;;;;;16.38;7.13;;;;;;;-1.10;100.00;99398.00;5036421;28;20026;-84
2023/03/08 09:17:18;;;;;;;16.98;7.03;;;;;;;-1.07;100.00;99391.22;5036591;28;20033;-84
2023/03/08 09:19:43;;;;;;;16.77;6.95;;;;;;;-1.14;100.00;99368.28;5035622;28;20025;-84
2023/03/08 09:22:08;;;;;;;17.08;7.10;;;;;;;-1.02;100.00;99357.31;5036306;28;20057;-83
2023/03/08 09:24:33;;;;;;;15.82;6.40;;;;;;;-0.98;100.00;99346.34;5036456;28;20083;-83
2023/03/08 09:26:59;;;;;;;14.55;5.70;;;;;;;-0.85;100.00;99349.81;5035594;28;20026;-82
2023/03/08 09:29:24;;;;;;;12.40;5.18;;;;;;;-0.83;100.00;99342.16;5036437;28;20026;-82
2023/03/08 09:31:49;;;;;;;12.43;5.07;;;;;;;-0.79;100.00;99334.56;5035941;28;20510;-82
2023/03/08 09:34:15;;;;;;;11.88;5.15;;;;;;;-0.84;100.00;99346.44;5024338;28;20029;-82
2023/03/08 09:36:41;;;;;;;12.55;5.22;;;;;;;-0.73;100.00;99338.84;5016155;28;20423;-82
2023/03/08 09:39:12;;;;;;;11.20;4.97;;;;;;;-0.63;100.00;99342.31;5027878;28;20385;-82
2023/03/08 09:41:43;;;;;;;12.82;5.80;;;;;;;-0.69;100.00;99332.94;5035395;28;20083;-82
2023/03/08 09:44:30;;;;;;;12.65;5.65;;;;;;;-0.70;100.00;99325.28;5035548;28;20053;-82
2023/03/08 09:47:04;;;;;;;14.18;6.75;;;;;;;-0.73;100.00;99323.56;5035012;28;20048;-82
2023/03/08 09:49:31;;;;;;;15.55;7.28;;;;;;;-0.68;100.00;99329.53;5036113;28;20026;-82
2023/03/08 09:52:08;;;;;;;;;;;;;;;-0.62;100.00;99323.63;5036023;28;20028;-82
2023/03/08 09:54:37;;;;;;;19.77;9.38;;;;;;;-0.65;100.00;99318.50;5035181;28;20327;-83
2023/03/08 09:57:07;;;;;;;20.50;10.50;;;;;;;-0.65;100.00;99326.16;5035381;28;20049;-83
2023/03/08 09:59:53;;;;;;;21.90;11.15;;;;;;;-0.60;100.00;99316.84;5035670;28;20056;-83
2023/03/08 10:02:31;;;;;;;21.92;11.38;;;;;;;-0.52;100.00;99309.25;5035173;28;20044;-82
2023/03/08 10:05:06;;;;;;;21.63;11.23;;;;;;;-0.35;100.00;99299.13;5035242;28;20025;-83
2023/03/08 10:07:46;;;;;;;26.65;14.43;;;;;;;-0.28;100.00;99298.31;5035177;28;20033;-83
2023/03/08 10:10:18;;;;;;;26.48;13.80;;;;;;;-0.20;100.00;99306.81;5034834;28;20370;-83
2023/03/08 10:12:50;;;;;;;26.98;14.60;;;;;;;-0.19;100.00;99317.91;5035009;28;20095;-83
2023/03/08 10:15:21;;;;;;;26.88;15.05;;;;;;;-0.20;100.00;99314.47;5033339;28;20384;-83
2023/03/08 10:17:49;;;;;;;25.58;14.00;;;;;;;-0.09;100.00;99319.63;5035188;28;20513;-82
2023/03/08 10:20:30;;;;;;;25.50;13.63;;;;;;;-0.04;100.00;99317.09;5035380;28;20466;-83
2023/03/08 10:23:01;;;;;;;26.63;14.30;;;;;;;-0.07;100.00;99319.63;5034586;28;20034;-83
2023/03/08 10:25:32;;;;;;;27.73;16.15;;;;;;;-0.17;100.00;99304.31;5033557;28;20412;-84
2023/03/08 10:28:00;;;;;;;27.67;15.77;;;;;;;-0.21;100.00;99309.38;4995735;28;20022;-85
2023/03/08 10:30:38;;;;;;;29.05;16.48;;;;;;;-0.23;100.00;99304.28;5000499;28;20026;-85
2023/03/08 10:33:08;;;;;;;27.20;15.82;;;;;;;-0.21;100.00;99291.53;5015466;28;20030;-86
2023/03/08 10:36:00;;;;;;;26.77;15.30;;;;;;;-0.17;100.00;99301.75;5015646;28;20022;-86
2023/03/08 10:38:29;;;;;;;27.15;16.10;;;;;;;-0.16;100.00;99311.09;4981379;28;20042;-86
2023/03/08 10:40:59;;;;;;;27.92;15.80;;;;;;;-0.20;100.00;99301.72;4995603;28;20030;-85
2023/03/08 10:43:31;;;;;;;28.45;16.25;;;;;;;-0.34;100.00;99293.19;4995513;28;20077;-86
2023/03/08 10:46:03;;;;;;;28.67;16.40;;;;;;;-0.22;100.00;99275.38;4995529;28;20104;-85
2023/03/08 10:48:28;;;;;;;28.77;16.58;;;;;;;-0.19;100.00;99267.75;4995716;28;20096;-85
2023/03/08 10:51:05;;;;;;;28.13;16.17;;;;;;;-0.19;100.00;99270.28;4994433;28;20026;-86
2023/03/08 10:53:31;;;;;;;;;;;;;;;-0.14;100.00;99274.56;4995871;28;20054;-86
2023/03/08 10:55:59;;;;;;;27.08;14.88;;;;;;;-0.11;100.00;99262.66;5003814;28;19917;-90
2023/03/08 10:58:32;;;;;;;28.65;15.88;;;;;;;-0.07;100.00;99277.13;5034005;28;20389;-84
2023/03/08 11:01:19;;;;;;;30.08;17.80;;;;;;;-0.05;100.00;99274.56;5034326;28;20031;-83
2023/03/08 11:03:44;;;;;;;32.42;18.17;;;;;;;-0.14;100.00;99283.03;5020071;28;20522;-83
2023/03/08 11:06:14;;;;;;;28.52;16.70;;;;;;;-0.10;100.00;99300.06;5033729;28;20100;-83
2023/03/08 11:08:51;;;;;;;29.63;16.73;;;;;;;-0.06;100.00;99294.16;5034346;28;20031;-83
2023/03/08 11:11:16;;;;;;;28.98;17.00;;;;;;;-0.05;100.00;99295.81;5034104;28;20469;-83
2023/03/08 11:13:47;;;;;;;28.83;16.75;;;;;;;-0.17;100.00;99289.00;5033848;28;20128;-83
2023/03/08 11:16:12;;;;;;;28.45;16.15;;;;;;;-0.07;100.00;99292.44;5034458;28;20121;-83
2023/03/08 11:18:56;;;;;;;27.33;15.73;;;;;;;-0.09;100.00;99285.59;5033589;28;20065;-82
2023/03/08 11:21:35;;;;;;;25.30;14.38;;;;;;;0.02;100.00;99288.22;5034258;28;20037;-83